Flight Track Log - Related Links

Times and Time Zones

All times are in EDT time to prevent confusion due to time zone crossing. See the SWA419 flight status page for this flight to view local times or setup timezone preferences in your user account.

Time Position Orientation Groundspeed Altitude Reporting Facility
EDT Latitude Longitude Course Direction KTS MPH feet Rate Location/Type
Tue 12:14:14 PM 43.6189 -70.2261 210° Southwest 166 191 3,500  Level Boston Center
Tue 12:15:13 PM 43.5739 -70.2706 216° Southwest 153 176 6,600 3,126 Climbing Boston Center
Tue 12:16:13 PM 43.5106 -70.3389 218° Southwest 236 272 9,700 2,876 Climbing Boston Center
Tue 12:17:14 PM 43.4514 -70.4067 220° Southwest 298 343 12,400 3,450 Climbing Boston Center
Tue 12:18:13 PM 43.3697 -70.4978 219° Southwest 335 386 16,600 3,176 Climbing Boston Center
Tue 12:19:00 PM 43.1227 -70.7252 210° Southwest  Level FlightAware Approximate
Tue 12:19:13 PM 43.3061 -70.5656 218° Southwest 360 414 18,700  Level Boston Center
Tue 12:20:13 PM 43.2181 -70.6622 219° Southwest 367 422 21,800 2,900 Climbing Boston Center
Tue 12:21:13 PM 43.1236 -70.7475 213° Southwest 390 449 24,500 2,600 Climbing Boston Center
Tue 12:22:13 PM 43.0206 -70.8242 209° Southwest 414 476 27,000 2,250 Climbing Boston Center
Tue 12:23:13 PM 42.9153 -70.8978 207° Southwest 424 488 29,000 2,281 Climbing Boston Center
Tue 12:24:14 PM 42.8056 -70.9686 205° Southwest 430 495 31,600 2,281 Climbing Boston Center
Tue 12:25:14 PM 42.6939 -71.0278 201° Southwest 430 495 33,600 1,200 Climbing Boston Center
Tue 12:26:14 PM 42.5797 -71.0811 199° South 436 502 34,000 202 Climbing Boston Center
Tue 12:27:13 PM 42.4597 -71.1400 200° South 446 513 34,000 -50 Level Boston Center
Tue 12:28:14 PM 42.3858 -71.2622 231° Southwest 428 493 33,900 -50 Descending Boston Center
Tue 12:29:14 PM 42.3436 -71.4147 250° West 415 478 33,900  Level Boston Center
Tue 12:30:14 PM 42.2867 -71.5728 244° Southwest 421 484 33,900 50 Level Boston Center
Tue 12:31:13 PM 42.2481 -71.7081 249° West 427 491 34,000 50 Climbing Boston Center
Tue 12:32:13 PM 42.2031 -71.8572 248° West 432 497 34,000  Level Boston Center
Tue 12:33:14 PM 42.1558 -72.0061 247° West 432 497 34,000  Level Boston Center
Tue 12:34:14 PM 42.1103 -72.1519 247° West 432 497 34,000  Level Boston Center
Tue 12:35:13 PM 42.0647 -72.2975 247° West 437 503 34,000  Level Boston Center
Tue 12:36:14 PM 42.0189 -72.4372 246° West 432 497 34,000  Level Boston Center
Tue 12:37:13 PM 41.9731 -72.5853 247° West 432 497 34,000  Level Boston Center
Tue 12:38:14 PM 41.9186 -72.7164 241° Southwest 420 483 34,000  Level Boston Center
Tue 12:39:13 PM 41.8350 -72.8303 225° Southwest 425 489 34,000  Level Boston Center
Tue 12:40:13 PM 41.7489 -72.9519 227° Southwest 438 504 34,000  Level Boston Center
Tue 12:41:14 PM 41.6650 -73.0653 225° Southwest 438 504 34,000  Level Boston Center
Tue 12:42:13 PM 41.5831 -73.1756 225° Southwest 432 497 34,000  Level Boston Center
Tue 12:43:54 PM 41.4519 -73.3564 226° Southwest 419 482 34,000  Level New York Center
Tue 12:44:52 PM 41.3683 -73.4667 225° Southwest 424 488 34,000  Level New York Center
Tue 12:45:52 PM 41.2867 -73.5764 225° Southwest 424 488 34,000  Level New York Center
Tue 12:46:52 PM 41.2150 -73.6975 232° Southwest 424 488 34,000  Level New York Center
Tue 12:47:52 PM 41.1411 -73.8211 232° Southwest 429 494 34,000  Level New York Center
Tue 12:48:52 PM 41.0669 -73.9442 231° Southwest 434 499 34,000 -300 Level New York Center
Tue 12:49:52 PM 40.9969 -74.0647 232° Southwest 429 494 33,400 -1,785 Descending New York Center
Tue 12:50:53 PM 40.9142 -74.1925 229° Southwest 429 494 30,400 -2,876 Descending New York Center
Tue 12:51:53 PM 40.8417 -74.3150 232° Southwest 429 494 27,600 -2,182 Descending New York Center
Tue 12:52:54 PM 40.7694 -74.4344 231° Southwest 429 494 26,000 -793 Descending New York Center
Tue 12:53:54 PM 40.6989 -74.5511 231° Southwest 424 488 26,000  Level New York Center
Tue 12:54:51 PM 40.6286 -74.6675 232° Southwest 424 488 26,000  Level New York Center
Tue 12:55:52 PM 40.5561 -74.7808 230° Southwest 419 482 26,000 -49 Level New York Center
Tue 12:56:53 PM 40.4792 -74.8911 227° Southwest 419 482 25,900 -446 Descending New York Center
Tue 12:57:53 PM 40.4025 -74.9981 227° Southwest 414 476 25,100 -915 Descending New York Center
Tue 12:58:51 PM 40.3233 -75.1103 227° Southwest 414 476 24,100 -1,261 Descending New York Center
Tue 12:59:52 PM 40.2464 -75.2197 227° Southwest 419 482 22,600 -1,426 Descending New York Center
Tue 01:00:53 PM 40.1672 -75.3289 227° Southwest 424 488 21,200 -1,587 Descending New York Center
Tue 01:01:53 PM 40.0944 -75.4325 227° Southwest 419 482 19,400 -1,388 Descending New York Center
Tue 01:02:54 PM 40.0153 -75.5356 225° Southwest 408 470 18,400 -694 Descending New York Center
Tue 01:03:54 PM 39.9508 -75.6289 228° Southwest 398 458 18,000 -205 Descending New York Center
Tue 01:04:51 PM 39.8794 -75.7456 231° Southwest 388 447 18,000 -864 Level New York Center
Tue 01:05:52 PM 39.8250 -75.8472 235° Southwest 378 435 16,300 -1,698 Descending New York Center
Tue 01:08:23 PM 39.6833 -76.1167 236° Southwest 320 368 12,000 -1,393 Descending Potomac TRACON
Tue 01:09:23 PM 39.6333 -76.2167 237° Southwest 300 345 11,400 -1,050 Descending Potomac TRACON
Tue 01:10:23 PM 39.6000 -76.3000 243° Southwest 295 339 9,900 -1,500 Descending Potomac TRACON
Tue 01:11:23 PM 39.5500 -76.4000 237° Southwest 290 334 8,400 -1,450 Descending Potomac TRACON
Tue 01:12:23 PM 39.5167 -76.4833 243° Southwest 285 328 7,000 -1,200 Descending Potomac TRACON
Tue 01:13:23 PM 39.4833 -76.5667 243° Southwest 276 318 6,000 -500 Descending Potomac TRACON
Tue 01:14:23 PM 39.4500 -76.6667 247° West 275 316 6,000  Level Potomac TRACON
Tue 01:15:23 PM 39.4167 -76.7500 243° Southwest 271 312 6,000 -500 Level Potomac TRACON
Tue 01:16:23 PM 39.3667 -76.8333 232° Southwest 274 315 5,000 -550 Descending Potomac TRACON
Tue 01:17:23 PM 39.3333 -76.9167 243° Southwest 269 310 4,900 -500 Descending Potomac TRACON
Tue 01:18:23 PM 39.3000 -77.0000 243° Southwest 274 315 4,000 -450 Descending Potomac TRACON
Tue 01:19:23 PM 39.2500 -77.0333 207° Southwest 214 246 4,000 50 Level Potomac TRACON
Tue 01:20:24 PM 39.2000 -77.0167 166° South 167 192 4,100 -50 Climbing Potomac TRACON
Tue 01:21:24 PM 39.1667 -77.0000 159° South 172 198 3,900 -600 Descending Potomac TRACON
Tue 01:22:24 PM 39.1833 -76.9500 67° East 163 188 2,900 -942 Descending Potomac TRACON
Tue 01:23:25 PM 39.1833 -76.9000 90° East 158 182 2,000 -397 Descending Potomac TRACON
Tue 01:24:25 PM 39.1833 -76.8500 90° East 163 188 2,100 -149 Climbing Potomac TRACON
Tue 01:25:26 PM 39.1833 -76.7833 90° East 163 188 1,700 -545 Descending Potomac TRACON
Tue 01:26:26 PM 39.1833 -76.7333 90° East 127 146 1,000 -700 Descending Potomac TRACON
Tue 01:28:00 PM 39.1754 -76.6683 218° Southwest  Level Estimated
Tue 01:35:00 PM 39.1754 -76.6683 270° West  Level Estimated
Tue 01:36:00 PM 39.1754 -76.6683 270° West  Level Estimated

Login

Don't have an account? Register now (free) for customized features, flight alerts, and more!